Terminal Aerodrome Forecast
Issued by NWS Green Bay, WI

Home | Current Version | Previous Version | Graphics & Text | Print | Product List | Glossary On
Versions: 1 2 3 4 5 6 7 8 9 10 11 12 13 14 15
000
FTUS43 KGRB 301727
TAFGRB
TAF
KGRB 301727Z 3018/0118 22007KT P6SM SCT025 OVC050
     FM302100 23006KT P6SM BKN025 OVC050
     FM010100 24004KT 6SM -RA BR OVC015
     FM010300 25005KT 5SM -RA BR OVC007
     FM010800 27007KT 5SM -RASN BR OVC008
     FM011400 28011KT P6SM -SN BKN015 OVC040=

USA.gov is the U.S. government's official web portal to all federal, state and local government web resources and services.